createdAt,value
2022-09-21T00:04:07.994Z,75.87
2022-09-21T00:09:00.426Z,75.82
2022-09-21T00:13:55.271Z,75.90
2022-09-21T00:18:48.594Z,76.24
2022-09-21T00:23:41.419Z,76.33
2022-09-21T00:28:33.144Z,76.44
2022-09-21T00:33:25.190Z,76.31
2022-09-21T00:38:16.801Z,76.29
2022-09-21T00:43:16.366Z,75.89
2022-09-21T00:48:08.114Z,75.75
2022-09-21T00:53:00.147Z,75.59
2022-09-21T00:57:57.728Z,75.44
2022-09-21T01:02:49.577Z,75.38
2022-09-21T01:07:46.049Z,74.88
2022-09-21T01:12:54.728Z,74.77
2022-09-21T01:18:02.013Z,74.72
2022-09-21T01:23:15.129Z,74.60
2022-09-21T01:28:09.630Z,74.92
2022-09-21T01:33:26.067Z,74.86
2022-09-21T01:38:26.978Z,75.10
2022-09-21T01:43:27.504Z,74.74
2022-09-21T01:48:22.390Z,74.81
2022-09-21T01:53:21.013Z,74.65
2022-09-21T01:58:30.342Z,74.81
2022-09-21T02:03:33.889Z,75.20
2022-09-21T02:08:29.074Z,75.17
2022-09-21T02:13:27.719Z,75.62
2022-09-21T02:18:35.743Z,75.94
2022-09-21T02:23:57.980Z,76.00
2022-09-21T02:29:01.733Z,76.21
2022-09-21T02:34:02.153Z,76.71
2022-09-21T02:39:07.572Z,76.27
2022-09-21T02:44:01.971Z,76.24
2022-09-21T02:48:57.969Z,75.54
2022-09-21T02:53:52.865Z,76.63
2022-09-21T02:58:49.861Z,77.00
2022-09-21T03:03:41.732Z,77.22
2022-09-21T03:08:33.400Z,77.22
2022-09-21T03:13:25.547Z,77.95
2022-09-21T03:18:17.242Z,77.99
2022-09-21T03:23:08.970Z,77.64
2022-09-21T03:28:01.374Z,77.26
2022-09-21T03:32:54.042Z,77.27
2022-09-21T03:37:48.821Z,77.24
2022-09-21T03:42:41.673Z,77.13
2022-09-21T03:47:33.436Z,77.19
2022-09-21T03:52:25.093Z,77.20
2022-09-21T03:57:16.792Z,77.23
2022-09-21T04:02:08.552Z,77.17
2022-09-21T04:07:00.670Z,77.67
2022-09-21T04:11:54.145Z,77.94
2022-09-21T04:16:46.124Z,78.00
2022-09-21T04:21:37.801Z,78.14
2022-09-21T04:26:32.729Z,78.21
2022-09-21T04:31:28.805Z,78.06
2022-09-21T04:36:22.226Z,78.45
2022-09-21T04:41:15.371Z,78.63
2022-09-21T04:46:09.122Z,78.46
2022-09-21T04:51:00.832Z,78.59
2022-09-21T04:55:52.711Z,78.46
2022-09-21T05:00:44.315Z,78.82
2022-09-21T05:05:35.961Z,78.53
2022-09-21T05:10:27.614Z,79.34
2022-09-21T05:15:19.521Z,79.47
2022-09-21T05:20:11.863Z,79.95
2022-09-21T05:25:04.125Z,80.40
2022-09-21T05:29:56.051Z,80.14
2022-09-21T05:35:06.568Z,80.33
2022-09-21T05:39:58.506Z,80.39
2022-09-21T05:44:50.729Z,81.04
2022-09-21T05:50:20.903Z,80.94
2022-09-21T05:55:43.255Z,81.23
2022-09-21T06:01:02.064Z,82.01
2022-09-21T06:05:53.802Z,82.74
2022-09-21T06:10:45.945Z,83.44
2022-09-21T06:15:38.526Z,84.69
2022-09-21T06:20:30.261Z,84.46
2022-09-21T06:25:22.052Z,84.98
2022-09-21T06:30:13.951Z,85.27
2022-09-21T06:35:06.047Z,84.95
2022-09-21T06:39:57.705Z,85.12
2022-09-21T06:44:49.340Z,84.60
2022-09-21T06:49:42.667Z,85.23
2022-09-21T06:54:34.496Z,84.42
2022-09-21T06:59:26.112Z,84.45
2022-09-21T07:04:20.873Z,83.93
2022-09-21T07:14:26.534Z,80.30
2022-09-21T07:19:18.138Z,77.73
2022-09-21T07:24:12.449Z,75.34
2022-09-21T07:29:04.435Z,74.24
2022-09-21T07:33:58.784Z,73.06
2022-09-21T07:38:50.429Z,69.12
2022-09-21T07:43:42.431Z,66.97
2022-09-21T07:48:34.196Z,63.92
2022-09-21T07:53:26.327Z,63.34
2022-09-21T07:58:36.794Z,61.47
2022-09-21T08:03:28.417Z,61.53
2022-09-21T08:08:20.884Z,60.58
2022-09-21T08:13:12.622Z,61.91
2022-09-21T08:18:07.331Z,63.36
2022-09-21T08:23:00.131Z,63.94
2022-09-21T08:27:52.536Z,65.41
2022-09-21T08:32:51.539Z,65.39
2022-09-21T08:37:43.741Z,65.51
2022-09-21T08:42:57.052Z,65.47
2022-09-21T08:48:02.775Z,64.51
2022-09-21T08:53:01.726Z,64.35
2022-09-21T08:57:53.547Z,64.23
2022-09-21T09:03:10.793Z,65.14
2022-09-21T09:08:24.456Z,64.49
2022-09-21T09:13:31.150Z,64.87
2022-09-21T09:18:53.710Z,64.88
2022-09-21T09:23:52.087Z,64.99
2022-09-21T09:29:28.597Z,64.34
2022-09-21T09:34:24.921Z,64.70
2022-09-21T09:39:17.558Z,63.61
2022-09-21T09:44:12.263Z,63.77
2022-09-21T09:49:06.809Z,63.41
2022-09-21T09:54:00.980Z,63.55
2022-09-21T09:59:06.964Z,62.86
2022-09-21T10:04:07.697Z,62.00
2022-09-21T10:09:00.062Z,60.21
2022-09-21T10:13:52.912Z,60.03
2022-09-21T10:19:01.760Z,59.22
2022-09-21T10:24:03.340Z,59.68
2022-09-21T10:29:17.243Z,58.95
2022-09-21T10:34:15.960Z,59.31
2022-09-21T10:39:31.946Z,59.36
2022-09-21T10:44:55.198Z,58.30
2022-09-21T10:49:52.858Z,58.64
2022-09-21T10:54:44.432Z,58.44
2022-09-21T10:59:37.514Z,56.80
2022-09-21T11:04:51.525Z,58.73
2022-09-21T11:09:46.230Z,56.48
2022-09-21T11:14:49.676Z,57.44
2022-09-21T11:19:47.215Z,57.00
2022-09-21T11:24:58.025Z,56.64
2022-09-21T11:30:03.473Z,56.22
2022-09-21T11:35:10.831Z,57.27
2022-09-21T11:40:38.099Z,57.23
2022-09-21T11:45:35.562Z,56.00
2022-09-21T11:50:46.682Z,55.09
2022-09-21T11:55:57.354Z,56.53
2022-09-21T12:00:58.129Z,56.01
2022-09-21T12:06:18.108Z,54.37
2022-09-21T12:11:18.644Z,53.31
2022-09-21T12:16:11.658Z,53.02
2022-09-21T12:21:15.653Z,53.15
2022-09-21T12:26:09.637Z,53.13
2022-09-21T12:31:09.693Z,52.79
2022-09-21T12:36:10.450Z,52.67
2022-09-21T12:41:20.481Z,51.87
2022-09-21T12:46:24.351Z,52.14
2022-09-21T12:51:32.936Z,50.69
2022-09-21T12:56:50.198Z,50.18
2022-09-21T13:01:52.251Z,49.36
2022-09-21T13:07:21.169Z,48.63
2022-09-21T13:12:30.622Z,49.98
2022-09-21T13:17:27.958Z,49.60
2022-09-21T13:22:20.090Z,50.04
2022-09-21T13:27:13.837Z,47.93
2022-09-21T13:32:11.766Z,47.90
2022-09-21T13:37:14.137Z,47.71
2022-09-21T13:42:33.756Z,47.98
2022-09-21T13:47:31.380Z,47.56
2022-09-21T13:52:30.143Z,47.16
2022-09-21T13:57:32.215Z,46.94
2022-09-21T14:02:37.132Z,45.93
2022-09-21T14:07:31.461Z,46.83
2022-09-21T14:12:26.969Z,46.42
2022-09-21T14:17:35.446Z,45.64
2022-09-21T14:22:27.203Z,45.77
2022-09-21T14:27:32.871Z,46.11
2022-09-21T14:32:26.781Z,46.64
2022-09-21T14:37:29.465Z,46.04
2022-09-21T14:42:27.312Z,45.67
2022-09-21T14:47:47.624Z,45.85
2022-09-21T14:53:01.848Z,46.09
2022-09-21T14:58:22.235Z,45.90
2022-09-21T15:03:30.771Z,45.58
2022-09-21T15:09:00.348Z,45.57
2022-09-21T15:14:15.809Z,46.43
2022-09-21T15:19:16.367Z,47.37
2022-09-21T15:24:34.366Z,47.69
2022-09-21T15:29:28.019Z,47.68
2022-09-21T15:34:20.468Z,48.22
2022-09-21T15:39:32.449Z,47.99
2022-09-21T15:44:31.698Z,49.42
2022-09-21T15:49:23.821Z,49.00
2022-09-21T15:54:42.328Z,48.87
2022-09-21T15:59:34.533Z,48.24
2022-09-21T16:04:28.174Z,48.41
2022-09-21T16:09:34.462Z,48.81
2022-09-21T16:14:45.070Z,48.11
2022-09-21T16:19:44.322Z,47.82
2022-09-21T16:24:36.765Z,48.60
2022-09-21T16:29:40.324Z,48.69
2022-09-21T16:34:35.245Z,48.92
2022-09-21T16:39:28.098Z,49.33
2022-09-21T16:44:22.915Z,49.75
2022-09-21T16:49:16.902Z,49.71
2022-09-21T16:54:08.852Z,49.86
2022-09-21T16:59:03.781Z,50.34
2022-09-21T17:03:56.128Z,50.53
2022-09-21T17:08:49.155Z,50.73
2022-09-21T17:13:41.099Z,51.09
2022-09-21T17:18:33.608Z,51.78
2022-09-21T17:23:29.235Z,52.38
2022-09-21T17:28:26.143Z,52.29
2022-09-21T17:33:19.953Z,52.32
2022-09-21T17:38:14.606Z,53.23
2022-09-21T17:43:27.652Z,53.52
2022-09-21T17:48:21.762Z,53.88
2022-09-21T17:53:32.884Z,54.12
2022-09-21T17:58:44.627Z,55.05
2022-09-21T18:03:41.193Z,55.14
2022-09-21T18:08:34.958Z,55.71
2022-09-21T18:13:38.270Z,55.59
2022-09-21T18:18:31.741Z,56.14
2022-09-21T18:23:50.111Z,56.28
2022-09-21T18:28:46.467Z,56.70
2022-09-21T18:33:47.069Z,57.06
2022-09-21T18:38:52.526Z,57.17
2022-09-21T18:43:49.151Z,57.56
2022-09-21T18:49:06.922Z,57.69
2022-09-21T18:54:00.156Z,58.26
2022-09-21T18:58:52.603Z,58.74
2022-09-21T19:03:45.092Z,58.77
2022-09-21T19:09:06.111Z,58.90
2022-09-21T19:14:00.600Z,59.27
2022-09-21T19:19:14.284Z,59.30
2022-09-21T19:24:09.134Z,59.65
2022-09-21T19:29:27.148Z,59.54
2022-09-21T19:34:19.846Z,59.95
2022-09-21T19:39:12.292Z,60.16
2022-09-21T19:44:10.295Z,60.35
2022-09-21T19:49:18.132Z,60.48
2022-09-21T19:54:33.372Z,60.86
2022-09-21T19:59:44.953Z,61.39
2022-09-21T20:04:46.133Z,61.10
2022-09-21T20:09:44.721Z,61.35
2022-09-21T20:15:00.581Z,61.85
2022-09-21T20:20:01.210Z,61.86
2022-09-21T20:25:01.715Z,61.84
2022-09-21T20:29:53.992Z,62.06
2022-09-21T20:34:45.694Z,62.37
2022-09-21T20:39:38.120Z,62.97
2022-09-21T20:44:29.872Z,63.01
2022-09-21T20:49:21.559Z,62.99
2022-09-21T20:54:13.385Z,63.47
2022-09-21T20:59:04.949Z,63.62
2022-09-21T21:04:01.831Z,64.04
2022-09-21T21:08:53.729Z,64.18
2022-09-21T21:13:45.698Z,64.76
2022-09-21T21:18:40.085Z,64.50
2022-09-21T21:23:52.107Z,64.94
2022-09-21T21:28:43.939Z,65.09
2022-09-21T21:33:35.573Z,65.72
2022-09-21T21:38:27.213Z,65.79
2022-09-21T21:43:19.236Z,65.84
2022-09-21T21:48:10.942Z,66.32
2022-09-21T21:53:03.325Z,66.74
2022-09-21T21:57:55.012Z,67.15
2022-09-21T22:02:46.926Z,67.51
2022-09-21T22:07:40.168Z,67.48
2022-09-21T22:12:31.780Z,68.24
2022-09-21T22:17:24.490Z,68.56
2022-09-21T22:22:16.092Z,69.28
2022-09-21T22:27:07.829Z,69.83
2022-09-21T22:32:00.763Z,70.46
2022-09-21T22:36:52.588Z,70.66
2022-09-21T22:41:44.217Z,71.25
2022-09-21T22:46:36.568Z,71.36
2022-09-21T22:51:29.256Z,72.00
2022-09-21T22:56:26.484Z,72.43
2022-09-21T23:01:25.352Z,72.40
2022-09-21T23:06:19.594Z,73.29
2022-09-21T23:11:21.866Z,73.76
2022-09-21T23:16:15.532Z,75.12
2022-09-21T23:21:11.341Z,75.79
2022-09-21T23:26:14.660Z,76.18
2022-09-21T23:31:09.806Z,76.96
2022-09-21T23:36:02.192Z,77.25
2022-09-21T23:40:54.136Z,77.76
2022-09-21T23:45:45.837Z,77.35
2022-09-21T23:50:37.426Z,77.97
2022-09-21T23:55:30.929Z,77.99
